Time;durP1;ratioP1;P1;durP2;ratioP2;P2;SDS_P1;SDS_P2;PMS_P1;PMS_P2;Temp;Humidity;BMP_temperature;BMP_pressure;BME280_temperature;BME280_humidity;BME280_pressure;Samples;Min_cycle;Max_cycle;Signal;HPM_P1;HPM_P2
2022/09/05 00:03:25;;;;;;;3.83;2.85;;;;;;;14.11;75.27;101501.30;1647222;86;21045;-75
2022/09/05 00:06:14;;;;;;;7.80;3.75;;;;;;;14.06;75.24;101496.16;1628069;87;21104;-74
2022/09/05 00:09:14;;;;;;;5.90;3.30;;;;;;;14.00;75.34;101495.06;1645044;87;21083;-74
2022/09/05 00:12:02;;;;;;;6.20;3.15;;;;;;;14.00;75.51;101495.52;1641637;86;21308;-74
2022/09/05 00:15:28;;;;;;;6.92;3.60;;;;;;;14.02;75.72;101493.67;1635042;87;21076;-74
2022/09/05 00:18:33;;;;;;;5.80;3.22;;;;;;;14.02;75.57;101491.03;1662693;84;21054;-75
2022/09/05 00:21:36;;;;;;;7.00;3.85;;;;;;;14.05;75.69;101496.23;1609008;87;21021;-74
2022/09/05 00:24:45;;;;;;;7.28;3.85;;;;;;;14.00;75.60;101488.94;1618169;85;21629;-74
2022/09/05 00:27:52;;;;;;;4.97;3.50;;;;;;;13.96;75.57;101489.47;1617446;87;21076;-74
2022/09/05 00:31:16;;;;;;;7.10;3.80;;;;;;;13.89;75.62;101494.56;1617600;87;21127;-74
2022/09/05 00:34:31;;;;;;;5.60;3.55;;;;;;;13.85;75.66;101486.34;1642769;86;21624;-75
2022/09/05 00:37:43;;;;;;;4.95;3.80;;;;;;;13.77;75.75;101485.73;1643331;86;21041;-75
2022/09/05 00:40:49;;;;;;;6.65;3.95;;;;;;;13.74;75.95;101491.10;1638304;86;21095;-75
2022/09/05 00:43:41;;;;;;;5.92;3.85;;;;;;;13.70;76.01;101496.08;1684253;84;21078;-75
2022/09/05 00:46:38;;;;;;;4.97;3.98;;;;;;;13.63;75.96;101496.72;1684184;84;21043;-75
2022/09/05 00:49:45;;;;;;;8.35;4.42;;;;;;;13.61;76.27;101496.78;1684463;83;21055;-75
2022/09/05 00:52:56;;;;;;;5.28;3.98;;;;;;;13.59;76.31;101496.42;1650931;85;21119;-75
2022/09/05 00:55:52;;;;;;;6.05;4.15;;;;;;;13.58;76.50;101492.08;1627411;87;21667;-75
2022/09/05 00:59:25;;;;;;;6.62;3.85;;;;;;;13.59;76.63;101495.96;1627267;87;22310;-75
2022/09/05 01:02:22;;;;;;;7.00;4.30;;;;;;;13.59;76.57;101495.96;1650708;85;21075;-75
2022/09/05 01:05:49;;;;;;;4.70;3.67;;;;;;;13.56;76.62;101503.11;1610119;88;21499;-75
2022/09/05 01:09:06;;;;;;;6.17;4.28;;;;;;;13.54;76.64;101508.41;1595925;89;21101;-75
2022/09/05 01:12:19;;;;;;;5.50;4.47;;;;;;;13.56;76.93;101498.70;1602018;88;21090;-75
2022/09/05 01:15:35;;;;;;;6.30;4.50;;;;;;;13.63;77.08;101495.40;1617492;87;21555;-75
2022/09/05 01:18:41;;;;;;;5.95;4.25;;;;;;;13.65;76.99;101505.44;1649142;84;22086;-75
2022/09/05 01:22:20;;;;;;;8.38;4.37;;;;;;;13.65;76.99;101493.58;1645108;87;21013;-75
2022/09/05 01:25:39;;;;;;;6.03;4.55;;;;;;;13.71;77.22;101497.33;1630117;86;21054;-75
2022/09/05 01:28:42;;;;;;;6.08;4.62;;;;;;;13.75;77.21;101500.29;1636597;87;21068;-75
2022/09/05 01:31:45;;;;;;;7.10;4.67;;;;;;;13.74;77.11;101494.59;1631388;87;21108;-75
2022/09/05 01:34:54;;;;;;;8.28;4.60;;;;;;;13.79;77.14;101492.67;1645010;87;20952;-75
2022/09/05 01:37:51;;;;;;;5.62;4.72;;;;;;;13.83;77.27;101493.45;1644953;87;21081;-75
2022/09/05 01:41:18;;;;;;;6.53;4.62;;;;;;;13.93;77.23;101498.80;1645019;87;20984;-75
2022/09/05 01:44:32;;;;;;;7.45;4.90;;;;;;;13.98;77.03;101502.61;1640933;86;21037;-74
2022/09/05 01:47:56;;;;;;;8.00;4.50;;;;;;;13.99;77.07;101503.86;1645038;87;21076;-75
2022/09/05 01:51:18;;;;;;;5.35;4.22;;;;;;;14.08;77.18;101497.87;1642040;86;21589;-74
2022/09/05 01:54:25;;;;;;;6.03;4.20;;;;;;;14.13;77.06;101500.76;1637712;86;21140;-74
2022/09/05 01:57:39;;;;;;;6.58;5.20;;;;;;;14.14;76.85;101507.77;1624973;87;21100;-75
2022/09/05 02:00:35;;;;;;;10.98;5.08;;;;;;;14.17;76.77;101512.09;1637458;87;21032;-74
2022/09/05 02:03:34;;;;;;;7.15;4.60;;;;;;;14.17;76.84;101508.13;1635889;87;21577;-74
2022/09/05 02:06:43;;;;;;;7.63;4.87;;;;;;;14.21;76.87;101513.69;1648925;86;21054;-75
2022/09/05 02:09:46;;;;;;;7.60;4.22;;;;;;;14.23;76.69;101511.41;1662208;86;21086;-75
2022/09/05 02:12:40;;;;;;;6.45;4.62;;;;;;;14.24;76.55;101507.87;1637680;86;21017;-75
2022/09/05 02:15:30;;;;;;;6.85;4.40;;;;;;;14.25;76.45;101505.63;1642002;87;21048;-75
2022/09/05 02:18:21;;;;;;;6.42;4.25;;;;;;;14.24;76.31;101507.87;1647706;85;21039;-75
2022/09/05 02:21:14;;;;;;;6.28;4.47;;;;;;;14.21;76.12;101502.67;1666369;84;20975;-75
2022/09/05 02:24:38;;;;;;;6.72;4.80;;;;;;;14.17;75.93;101500.22;1666529;84;21606;-75
2022/09/05 02:27:37;;;;;;;6.58;4.15;;;;;;;14.15;75.88;101505.99;1666270;85;21083;-75
2022/09/05 02:30:26;;;;;;;7.17;4.40;;;;;;;14.12;76.24;101495.55;1662843;85;21023;-75
2022/09/05 02:33:29;;;;;;;5.80;4.62;;;;;;;14.13;76.09;101500.76;1673696;84;21055;-75
2022/09/05 02:36:36;;;;;;;5.28;4.12;;;;;;;14.11;76.09;101501.75;1673357;85;21036;-75
2022/09/05 02:39:46;;;;;;;6.67;4.70;;;;;;;14.10;76.39;101499.55;1672898;84;21071;-75
2022/09/05 02:42:40;;;;;;;9.23;4.72;;;;;;;14.09;76.14;101500.94;1674944;85;21070;-75
2022/09/05 02:45:36;;;;;;;5.53;4.55;;;;;;;14.06;76.22;101506.71;1660179;85;21094;-75
2022/09/05 02:48:54;;;;;;;6.62;5.28;;;;;;;14.04;75.95;101514.27;1669513;85;21556;-76
2022/09/05 02:51:47;;;;;;;8.25;4.70;;;;;;;13.98;75.89;101519.75;1666305;86;21091;-75
2022/09/05 02:54:38;;;;;;;6.15;4.72;;;;;;;13.97;76.23;101516.72;1662507;85;21571;-75
2022/09/05 02:57:55;;;;;;;7.30;5.12;;;;;;;13.95;76.13;101515.44;1673163;85;21079;-75
2022/09/05 03:01:01;;;;;;;7.47;4.90;;;;;;;13.95;76.35;101515.44;1636895;86;21231;-75
2022/09/05 03:04:15;;;;;;;7.55;4.85;;;;;;;13.94;76.37;101517.68;1536703;91;21098;-75
2022/09/05 03:07:37;;;;;;;9.30;5.50;;;;;;;13.93;76.49;101522.52;1638034;87;21200;-75
2022/09/05 03:10:47;;;;;;;7.28;4.55;;;;;;;13.91;76.42;101512.94;1646075;86;21051;-75
2022/09/05 03:13:36;;;;;;;;;;;;;;;13.86;76.50;101510.95;1635962;86;21051;-75
2022/09/05 03:16:57;;;;;;;6.53;4.40;;;;;;;13.89;76.84;101518.75;1646300;86;20221;-76
2022/09/05 03:20:05;;;;;;;6.70;5.17;;;;;;;13.84;76.56;101523.69;1646009;86;21102;-75
2022/09/05 03:23:18;;;;;;;7.87;4.92;;;;;;;13.83;76.69;101530.34;1620816;86;21090;-75
2022/09/05 03:26:46;;;;;;;7.10;4.75;;;;;;;13.77;76.50;101524.83;1629400;86;21596;-75
2022/09/05 03:29:52;;;;;;;6.92;4.80;;;;;;;13.79;76.87;101528.25;1646086;86;21110;-75
2022/09/05 03:33:19;;;;;;;5.42;4.50;;;;;;;13.81;76.92;101533.02;1639857;86;21508;-75
2022/09/05 03:36:45;;;;;;;5.78;4.10;;;;;;;13.78;77.00;101530.95;1666309;86;21525;-75
2022/09/05 03:39:54;;;;;;;7.08;5.12;;;;;;;13.78;77.15;101535.76;1666389;86;21605;-75
2022/09/05 03:42:45;;;;;;;7.28;4.85;;;;;;;13.77;77.33;101537.11;1659174;85;21027;-75
2022/09/05 03:46:03;;;;;;;6.17;5.00;;;;;;;13.83;77.40;101542.20;1666630;85;21063;-75
2022/09/05 03:49:03;;;;;;;6.17;4.90;;;;;;;13.81;77.25;101539.61;1666322;84;20989;-75
2022/09/05 03:51:53;;;;;;;6.25;5.20;;;;;;;13.79;77.04;101540.56;1666506;85;21040;-75
2022/09/05 03:54:56;;;;;;;7.22;5.47;;;;;;;13.81;77.30;101537.44;1665381;85;21030;-75
2022/09/05 03:58:02;;;;;;;6.50;5.22;;;;;;;13.82;77.17;101537.37;1650508;86;21074;-75
2022/09/05 04:01:23;;;;;;;9.58;5.80;;;;;;;13.79;76.94;101536.61;1658262;85;21528;-75
2022/09/05 04:04:32;;;;;;;9.10;5.30;;;;;;;13.77;76.89;101538.00;1668036;85;21054;-75
2022/09/05 04:07:25;;;;;;;7.58;4.92;;;;;;;13.72;76.92;101537.74;1666048;85;21102;-75
2022/09/05 04:10:37;;;;;;;6.60;5.17;;;;;;;13.71;76.97;101539.95;1666091;85;21095;-75
2022/09/05 04:13:30;;;;;;;7.80;5.15;;;;;;;13.65;76.81;101540.15;1666254;85;21024;-75
2022/09/05 04:16:33;;;;;;;6.62;4.92;;;;;;;13.52;76.73;101543.61;1666236;85;20982;-75
2022/09/05 04:19:36;;;;;;;7.30;5.28;;;;;;;13.48;76.93;101549.44;1649831;84;21088;-75
2022/09/05 04:22:42;;;;;;;8.75;5.22;;;;;;;13.43;77.05;101542.59;1644733;87;21092;-75
2022/09/05 04:26:09;;;;;;;6.47;5.40;;;;;;;13.45;77.30;101544.73;1644915;87;21116;-75
2022/09/05 04:29:03;;;;;;;7.42;5.33;;;;;;;13.46;77.36;101540.71;1627418;87;21071;-75
2022/09/05 04:32:01;;;;;;;7.60;5.12;;;;;;;13.48;77.46;101543.31;1639134;86;21042;-75
2022/09/05 04:35:04;;;;;;;7.50;5.30;;;;;;;13.49;77.50;101546.34;1652224;86;21506;-75
2022/09/05 04:38:13;;;;;;;6.72;5.40;;;;;;;13.47;77.30;101550.78;1635628;86;21064;-75
2022/09/05 04:41:03;;;;;;;7.50;5.80;;;;;;;13.43;77.33;101543.91;1651891;86;21064;-75
2022/09/05 04:43:53;;;;;;;7.47;6.00;;;;;;;13.37;77.35;101553.71;1645294;87;21017;-76
2022/09/05 04:46:46;;;;;;;8.45;5.80;;;;;;;13.36;77.49;101552.45;1644923;87;21372;-76
2022/09/05 04:49:35;;;;;;;7.10;5.58;;;;;;;13.38;77.85;101565.98;1630451;87;21087;-75
2022/09/05 04:53:06;;;;;;;10.45;5.55;;;;;;;13.43;77.84;101562.34;1626900;87;21126;-75
2022/09/05 04:55:56;;;;;;;7.30;5.37;;;;;;;13.41;77.70;101566.32;1643843;87;21068;-75
2022/09/05 04:58:45;;;;;;;8.53;5.25;;;;;;;13.36;77.70;101567.80;1644969;87;21068;-76
2022/09/05 05:01:34;;;;;;;;;;;;;;;13.32;77.72;101571.88;1637703;87;21115;-84
2022/09/05 05:04:23;;;;;;;6.20;5.28;;;;;;;13.32;78.32;101570.09;1615641;87;20698;-82
2022/09/05 05:07:25;;;;;;;6.35;5.65;;;;;;;13.36;78.02;101575.70;1619150;86;21095;-84
2022/09/05 05:10:18;;;;;;;6.80;5.35;;;;;;;13.35;77.99;101575.73;1615514;87;21083;-82
2022/09/05 05:13:11;;;;;;;8.20;5.03;;;;;;;13.33;77.99;101585.44;1620909;86;21122;-85
2022/09/05 05:16:02;;;;;;;7.87;5.20;;;;;;;13.37;78.43;101585.77;1616577;87;21123;-84
2022/09/05 05:19:20;;;;;;;9.03;5.83;;;;;;;13.47;78.35;101588.55;1636235;83;21110;-83
2022/09/05 05:22:09;;;;;;;6.00;5.22;;;;;;;13.54;78.56;101587.89;1668330;85;21224;-84
2022/09/05 05:24:56;;;;;;;8.13;5.62;;;;;;;13.61;78.75;101584.18;1651814;85;21020;-81
2022/09/05 05:27:49;;;;;;;6.78;4.97;;;;;;;13.69;78.55;101587.87;1668381;85;21074;-76
2022/09/05 05:30:35;;;;;;;7.30;4.92;;;;;;;13.76;78.61;101588.95;1673754;85;21078;-80
2022/09/05 05:33:28;;;;;;;7.62;5.40;;;;;;;13.82;78.48;101589.22;1668326;85;21417;-85
2022/09/05 05:36:27;;;;;;;7.37;5.60;;;;;;;13.86;78.30;101588.69;1668459;85;21086;-83
2022/09/05 05:39:17;;;;;;;8.35;5.80;;;;;;;13.88;78.35;101593.43;1676068;85;21063;-75
2022/09/05 05:42:03;;;;;;;6.80;4.90;;;;;;;13.92;78.33;101599.03;1675001;83;21105;-81
2022/09/05 05:44:55;;;;;;;6.62;5.42;;;;;;;13.96;78.20;101598.86;1672006;84;21012;-76
2022/09/05 05:47:53;;;;;;;6.75;5.20;;;;;;;13.99;78.21;101603.17;1672942;84;21086;-81
2022/09/05 05:50:50;;;;;;;9.68;5.33;;;;;;;14.08;78.50;101602.90;1667761;84;21079;-73
2022/09/05 05:54:07;;;;;;;6.28;5.17;;;;;;;14.12;78.37;101603.66;1670087;84;21083;-74
2022/09/05 05:57:33;;;;;;;7.47;4.90;;;;;;;14.24;78.26;101608.52;1654599;84;21046;-78
2022/09/05 06:00:45;;;;;;;6.95;5.00;;;;;;;14.28;78.19;101607.05;1641759;86;21005;-80
2022/09/05 06:04:00;;;;;;;7.17;4.92;;;;;;;14.33;78.16;101613.94;1670494;84;21662;-75
2022/09/05 06:07:44;;;;;;;6.17;4.62;;;;;;;14.43;78.30;101604.80;1676225;84;21090;-82
2022/09/05 06:11:22;;;;;;;5.72;4.67;;;;;;;14.50;78.22;101608.97;1676294;84;21531;-76
2022/09/05 06:14:50;;;;;;;6.60;4.92;;;;;;;14.56;78.16;101612.75;1665020;85;21051;-80
2022/09/05 06:18:14;;;;;;;5.85;4.78;;;;;;;14.70;78.25;101599.93;1670199;84;21114;-83
2022/09/05 06:21:31;;;;;;;5.75;5.03;;;;;;;14.78;78.07;101598.81;1675572;84;21087;-74
2022/09/05 06:24:43;;;;;;;7.50;4.58;;;;;;;14.90;78.43;101599.68;1674770;84;21050;-79
2022/09/05 06:28:05;;;;;;;7.25;4.70;;;;;;;15.02;78.27;101603.22;1675289;84;21730;-81
2022/09/05 06:31:33;;;;;;;6.15;4.53;;;;;;;15.15;78.31;101608.42;1669212;84;21063;-77
2022/09/05 06:34:40;;;;;;;5.33;4.35;;;;;;;15.30;78.00;101602.20;1544501;84;21110;-76
2022/09/05 06:37:44;;;;;;;4.83;3.90;;;;;;;15.44;77.89;101599.03;1667520;84;21094;-76
2022/09/05 06:40:56;;;;;;;5.95;4.10;;;;;;;15.57;77.54;101600.27;1667610;84;21071;-78
2022/09/05 06:44:14;;;;;;;5.55;4.47;;;;;;;15.67;77.44;101597.67;1675754;84;20962;-79
2022/09/05 06:47:05;;;;;;;6.33;4.10;;;;;;;15.80;77.14;101607.34;1670033;84;21094;-78
2022/09/05 06:50:17;;;;;;;4.90;4.33;;;;;;;15.92;77.20;101604.66;1675300;84;21090;-74
2022/09/05 06:53:27;;;;;;;6.80;3.70;;;;;;;15.99;76.84;101598.19;1672899;84;20958;-78
2022/09/05 06:56:41;;;;;;;4.92;3.58;;;;;;;16.11;76.58;101600.35;1635223;86;22342;-77
2022/09/05 06:59:55;;;;;;;6.40;3.83;;;;;;;16.11;76.58;101600.35;1636907;87;21142;-78
2022/09/05 07:03:00;;;;;;;4.95;4.33;;;;;;;16.24;76.39;101609.98;1641403;87;21503;-79
2022/09/05 07:06:08;;;;;;;5.45;3.60;;;;;;;16.45;75.93;101613.49;1638525;86;21187;-74
2022/09/05 07:09:36;;;;;;;4.95;3.77;;;;;;;16.51;75.70;101608.79;1638500;86;21599;-73
2022/09/05 07:12:36;;;;;;;5.42;4.08;;;;;;;16.51;75.70;101608.79;1646530;85;21117;-72
2022/09/05 07:15:54;;;;;;;6.92;4.50;;;;;;;16.67;75.49;101622.70;1608705;87;21338;-73
2022/09/05 07:19:07;;;;;;;7.30;4.40;;;;;;;16.70;75.16;101614.16;1604283;86;21113;-74
2022/09/05 07:22:15;;;;;;;5.28;4.22;;;;;;;16.92;75.13;101623.38;1604874;88;21102;-81
2022/09/05 07:25:06;;;;;;;5.60;4.37;;;;;;;16.92;75.13;101623.38;1606984;89;21142;-74
2022/09/05 07:28:11;;;;;;;5.42;4.30;;;;;;;17.18;74.63;101624.00;1603027;88;21160;-73
2022/09/05 07:31:03;;;;;;;5.72;4.30;;;;;;;17.18;74.63;101624.00;1607207;88;21032;-75
2022/09/05 07:33:50;;;;;;;5.87;3.55;;;;;;;17.28;74.21;101629.77;1616516;87;21550;-75
2022/09/05 07:36:43;;;;;;;5.87;3.70;;;;;;;17.35;73.88;101631.22;1635051;86;21715;-75
2022/09/05 07:39:33;;;;;;;5.35;3.87;;;;;;;17.45;73.95;101633.81;1646896;85;21504;-75
2022/09/05 07:42:35;;;;;;;5.95;3.77;;;;;;;17.56;73.70;101639.95;1630700;85;21107;-76
2022/09/05 07:45:28;;;;;;;6.15;4.33;;;;;;;17.67;73.40;101644.28;1638155;86;21593;-74
2022/09/05 07:48:24;;;;;;;5.90;3.90;;;;;;;17.76;73.22;101644.31;1636805;86;21139;-74
2022/09/05 07:51:14;;;;;;;5.40;4.35;;;;;;;17.86;73.10;101640.80;1654073;86;21096;-74
2022/09/05 07:54:10;;;;;;;6.30;4.15;;;;;;;17.93;72.55;101645.75;1669013;84;21604;-75
2022/09/05 07:57:02;;;;;;;6.47;3.92;;;;;;;18.03;72.27;101645.67;1670052;84;21107;-74
2022/09/05 07:59:52;;;;;;;8.43;4.70;;;;;;;18.13;72.12;101649.23;1670840;84;22109;-74
2022/09/05 08:02:47;;;;;;;5.95;4.42;;;;;;;18.22;72.10;101644.31;1670930;84;21076;-76
2022/09/05 08:05:52;;;;;;;8.50;3.83;;;;;;;18.33;71.83;101641.13;1670779;84;21143;-74
2022/09/05 08:08:55;;;;;;;4.53;3.98;;;;;;;18.44;71.48;101638.80;1676542;84;21512;-75
2022/09/05 08:11:41;;;;;;;4.87;3.95;;;;;;;18.53;71.26;101645.44;1670843;84;21068;-75
2022/09/05 08:14:53;;;;;;;4.92;3.72;;;;;;;18.66;71.11;101640.37;1670925;84;21056;-75
2022/09/05 08:18:32;;;;;;;6.70;4.50;;;;;;;18.78;70.79;101639.77;1670928;84;21633;-75
2022/09/05 08:21:25;;;;;;;6.80;4.55;;;;;;;18.88;70.52;101635.70;1671057;84;21585;-75
2022/09/05 08:24:35;;;;;;;6.00;4.33;;;;;;;19.04;70.31;101634.88;1680502;84;21205;-75
2022/09/05 08:27:25;;;;;;;4.55;3.87;;;;;;;19.16;70.19;101624.94;1680548;84;21569;-75
2022/09/05 08:30:12;;;;;;;4.67;3.85;;;;;;;19.30;69.70;101628.19;1678823;84;21040;-75
2022/09/05 08:33:08;;;;;;;7.00;4.87;;;;;;;19.38;69.42;101626.83;1670903;84;21123;-74
2022/09/05 08:36:04;;;;;;;5.33;4.17;;;;;;;19.53;69.35;101628.25;1670844;84;21625;-75
2022/09/05 08:38:50;;;;;;;7.70;4.67;;;;;;;19.65;68.45;101627.59;1669108;84;21080;-75
2022/09/05 08:42:06;;;;;;;5.75;4.35;;;;;;;19.71;68.06;101617.97;1678889;84;21534;-74
2022/09/05 08:45:28;;;;;;;8.85;4.37;;;;;;;19.80;68.02;101616.11;1668189;84;21071;-75
2022/09/05 08:48:28;;;;;;;6.05;4.22;;;;;;;19.90;67.55;101611.58;1678898;84;21060;-75
2022/09/05 08:51:43;;;;;;;;;;;;;;;20.03;67.17;101600.15;1653805;84;21084;-75
2022/09/05 08:54:51;;;;;;;8.38;4.25;;;;;;;20.11;66.73;101601.05;1678797;84;20487;-75
2022/09/05 08:57:53;;;;;;;5.17;4.22;;;;;;;20.19;67.00;101596.13;1651609;84;21036;-75
2022/09/05 09:00:47;;;;;;;7.20;4.33;;;;;;;20.36;66.81;101599.13;1658878;85;21029;-79
2022/09/05 09:04:15;;;;;;;5.08;4.40;;;;;;;20.49;66.17;101598.80;1670776;84;21032;-75
2022/09/05 09:07:07;;;;;;;4.90;3.60;;;;;;;20.56;65.66;101592.64;1671056;84;21041;-75
2022/09/05 09:10:28;;;;;;;7.08;4.00;;;;;;;20.69;65.75;101590.11;1670707;85;21029;-75
2022/09/05 09:13:28;;;;;;;6.12;3.92;;;;;;;20.84;65.54;101590.97;1670944;85;21598;-75
2022/09/05 09:16:29;;;;;;;4.42;3.92;;;;;;;20.96;64.96;101586.23;1670850;84;21089;-75
2022/09/05 09:19:23;;;;;;;4.83;3.55;;;;;;;21.12;65.02;101593.67;1670696;84;21033;-75
2022/09/05 09:22:39;;;;;;;5.75;3.85;;;;;;;21.30;64.30;101584.97;1645033;87;21021;-75
2022/09/05 09:25:41;;;;;;;4.33;3.30;;;;;;;21.44;63.93;101582.80;1618293;87;21083;-80
2022/09/05 09:29:06;;;;;;;4.87;3.60;;;;;;;21.53;62.74;101590.68;1640728;87;21045;-75
2022/09/05 09:32:09;;;;;;;4.85;3.87;;;;;;;21.51;62.41;101584.12;1643419;86;21047;-74
2022/09/05 09:35:15;;;;;;;4.78;4.05;;;;;;;21.57;62.17;101589.06;1625745;86;21016;-76
2022/09/05 09:38:31;;;;;;;4.30;3.72;;;;;;;21.66;61.99;101586.76;1645058;86;21090;-79
2022/09/05 09:41:44;;;;;;;4.15;3.72;;;;;;;21.62;61.39;101582.11;1643717;86;21588;-81
2022/09/05 09:44:56;;;;;;;5.35;3.58;;;;;;;21.64;61.46;101587.33;1640566;87;21084;-74
2022/09/05 09:48:06;;;;;;;6.40;3.90;;;;;;;21.78;60.77;101588.16;1650982;86;21079;-74
2022/09/05 09:51:05;;;;;;;5.75;3.47;;;;;;;21.78;60.20;101583.27;1646108;86;21100;-76
2022/09/05 09:54:30;;;;;;;4.55;3.40;;;;;;;21.88;60.09;101581.73;1616647;87;21083;-75
2022/09/05 09:57:52;;;;;;;5.25;3.22;;;;;;;22.03;59.66;101569.16;1616511;87;21048;-75
2022/09/05 10:01:13;;;;;;;4.60;3.10;;;;;;;22.21;59.46;101576.47;1631042;86;21297;-75
2022/09/05 10:04:33;;;;;;;4.40;3.33;;;;;;;22.42;59.00;101575.48;1621118;86;21498;-75
2022/09/05 10:07:58;;;;;;;4.80;3.52;;;;;;;22.60;58.56;101573.38;1624235;86;21068;-75
2022/09/05 10:11:16;;;;;;;9.28;3.85;;;;;;;22.83;58.47;101566.42;1628641;87;21091;-75
2022/09/05 10:14:19;;;;;;;5.00;3.75;;;;;;;22.97;57.40;101570.83;1614336;87;21067;-75
2022/09/05 10:17:32;;;;;;;4.87;3.45;;;;;;;23.11;57.08;101564.89;1618369;87;21108;-75
2022/09/05 10:20:54;;;;;;;5.78;3.75;;;;;;;23.23;56.55;101564.48;1632524;83;21019;-75
2022/09/05 10:23:51;;;;;;;4.10;3.50;;;;;;;23.41;56.49;101555.59;1666198;86;21063;-76
2022/09/05 10:27:05;;;;;;;42.40;17.07;;;;;;;23.55;56.45;101551.91;1666175;86;21012;-76
2022/09/05 10:30:28;;;;;;;37.65;15.10;;;;;;;23.67;55.95;101547.00;1645415;86;21078;-76
2022/09/05 10:33:37;;;;;;;3.77;3.40;;;;;;;23.66;55.77;101539.92;1588071;86;21122;-76
2022/09/05 10:36:30;;;;;;;4.35;3.55;;;;;;;23.62;55.22;101549.66;1589110;88;21068;-76
2022/09/05 10:39:20;;;;;;;4.67;2.98;;;;;;;23.62;54.74;101545.64;1660971;85;21059;-76
2022/09/05 10:42:46;;;;;;;5.67;3.27;;;;;;;23.81;54.81;101548.69;1666293;86;21058;-76
2022/09/05 10:45:59;;;;;;;3.90;3.45;;;;;;;23.95;54.41;101542.30;1637818;84;21087;-75
2022/09/05 10:48:59;;;;;;;4.05;3.17;;;;;;;24.18;54.15;101540.05;1666201;86;21205;-75
2022/09/05 10:52:02;;;;;;;3.35;2.98;;;;;;;24.33;53.78;101537.16;1666087;85;21012;-75
2022/09/05 10:55:29;;;;;;;4.00;3.40;;;;;;;24.56;53.40;101527.39;1666200;85;21095;-75
2022/09/05 10:58:50;;;;;;;12.65;5.92;;;;;;;24.72;52.78;101534.59;1666408;86;21024;-75
2022/09/05 11:02:04;;;;;;;5.72;3.27;;;;;;;24.59;52.20;101533.36;1675680;85;21026;-76
2022/09/05 11:05:40;;;;;;;5.78;3.17;;;;;;;24.74;52.39;101533.12;1667588;85;21061;-75
2022/09/05 11:08:43;;;;;;;4.33;3.15;;;;;;;24.73;52.24;101526.06;1655895;84;21098;-75
2022/09/05 11:11:33;;;;;;;5.67;2.98;;;;;;;24.83;51.78;101527.02;1675610;85;21486;-76
2022/09/05 11:14:51;;;;;;;5.22;2.85;;;;;;;24.66;51.17;101517.63;1675685;84;21078;-75
2022/09/05 11:18:02;;;;;;;6.05;3.17;;;;;;;24.56;50.72;101519.34;1675871;85;21079;-75
2022/09/05 11:21:02;;;;;;;4.62;2.90;;;;;;;24.55;50.51;101524.32;1660670;84;21084;-76
2022/09/05 11:23:53;;;;;;;;;;;;;;;24.36;50.42;101528.88;1639335;87;21653;-76
2022/09/05 11:26:55;;;;;;;3.27;2.67;;;;;;;24.41;49.58;101523.53;1664136;86;20209;-76
2022/09/05 11:30:04;;;;;;;3.47;2.67;;;;;;;24.15;49.46;101530.06;1664259;86;21122;-76
2022/09/05 11:33:19;;;;;;;3.05;2.45;;;;;;;24.00;49.29;101529.42;1664340;86;21079;-76
2022/09/05 11:36:27;;;;;;;5.53;2.83;;;;;;;24.18;49.64;101528.00;1664406;86;21047;-76
2022/09/05 11:39:21;;;;;;;3.98;2.90;;;;;;;24.38;49.31;101522.44;1664263;86;21044;-76
2022/09/05 11:42:54;;;;;;;4.45;3.00;;;;;;;24.25;49.04;101530.59;1620304;87;21104;-75
2022/09/05 11:46:24;;;;;;;5.30;2.83;;;;;;;24.31;49.06;101533.28;1645083;87;21072;-76
2022/09/05 11:49:43;;;;;;;5.10;3.25;;;;;;;24.16;48.48;101518.37;1623587;87;21048;-76
2022/09/05 11:52:50;;;;;;;;;;;;;;;24.29;48.51;101515.61;1630216;87;21017;-76
2022/09/05 11:55:57;;;;;;;5.33;2.80;;;;;;;24.44;48.11;101515.31;1644765;87;20197;-76
2022/09/05 11:59:01;;;;;;;3.00;2.17;;;;;;;24.64;48.67;101511.06;1644895;87;21091;-76
2022/09/05 12:02:21;;;;;;;3.17;2.45;;;;;;;25.00;48.78;101499.72;1644806;87;21029;-76
2022/09/05 12:05:50;;;;;;;3.02;2.37;;;;;;;25.41;48.42;101496.00;1627969;86;21058;-76
2022/09/05 12:08:48;;;;;;;4.97;2.60;;;;;;;25.52;47.51;101498.18;1641417;86;21068;-76
2022/09/05 12:12:10;;;;;;;3.25;2.42;;;;;;;25.43;47.12;101505.63;1632162;87;21040;-76
2022/09/05 12:15:21;;;;;;;4.92;2.92;;;;;;;25.26;46.97;101501.66;1609867;86;22116;-85
2022/09/05 12:18:35;;;;;;;4.78;2.52;;;;;;;25.32;47.00;101499.80;1613768;86;21153;-81
2022/09/05 12:21:31;;;;;;;3.52;2.62;;;;;;;25.44;46.86;101495.28;1607309;86;21092;-85
2022/09/05 12:24:46;;;;;;;5.25;2.77;;;;;;;25.44;45.98;101494.40;1664077;85;21158;-76
2022/09/05 12:27:38;;;;;;;3.80;2.80;;;;;;;25.40;45.75;101498.33;1665442;84;21074;-74
2022/09/05 12:30:31;;;;;;;3.85;2.60;;;;;;;25.62;45.73;101497.41;1663768;86;21173;-76
2022/09/05 12:33:28;;;;;;;3.60;2.60;;;;;;;25.71;45.44;101501.50;1664923;84;21100;-75
2022/09/05 12:36:34;;;;;;;4.08;2.52;;;;;;;25.52;45.21;101498.64;1664476;85;21140;-75
2022/09/05 12:39:50;;;;;;;5.15;2.40;;;;;;;25.54;45.47;101495.35;1652298;85;21481;-76
2022/09/05 12:43:00;;;;;;;44.33;5.42;;;;;;;25.75;45.21;101495.41;1646764;85;21614;-76
2022/09/05 12:45:54;;;;;;;4.47;2.58;;;;;;;25.80;44.46;101490.47;1649207;86;21062;-76
2022/09/05 12:49:03;;;;;;;3.42;2.33;;;;;;;26.02;44.27;101487.73;1654564;84;21071;-79
2022/09/05 12:52:06;;;;;;;5.15;2.30;;;;;;;25.90;43.38;101483.38;1671131;84;21524;-85
2022/09/05 12:54:58;;;;;;;3.12;2.35;;;;;;;25.67;43.34;101485.30;1667435;84;21094;-79
2022/09/05 12:57:45;;;;;;;4.80;2.58;;;;;;;25.35;43.21;101482.09;1666817;84;21143;-82
2022/09/05 13:00:46;;;;;;;3.80;2.83;;;;;;;25.47;43.81;101482.94;1666769;85;21078;-80
2022/09/05 13:03:36;;;;;;;8.23;3.00;;;;;;;25.70;43.88;101483.70;1666909;84;21134;-75
2022/09/05 13:06:37;;;;;;;6.83;2.47;;;;;;;25.75;43.17;101481.98;1634780;86;21125;-80
2022/09/05 13:09:30;;;;;;;4.00;2.40;;;;;;;25.45;43.27;101478.68;1623107;86;21546;-79
2022/09/05 13:12:28;;;;;;;3.12;2.17;;;;;;;25.22;43.28;101472.50;1625108;86;21143;-76
2022/09/05 13:15:35;;;;;;;3.72;2.60;;;;;;;25.34;43.58;101479.06;1624803;86;21079;-80
2022/09/05 13:18:22;;;;;;;3.37;2.27;;;;;;;25.55;43.81;101471.54;1625197;86;21580;-84
2022/09/05 13:21:19;;;;;;;3.50;2.87;;;;;;;25.43;43.56;101465.38;1620664;86;21555;-78
2022/09/05 13:24:33;;;;;;;3.90;2.20;;;;;;;25.23;43.66;101464.34;1624210;87;21060;-80
2022/09/05 13:27:26;;;;;;;3.83;2.60;;;;;;;25.20;43.57;101463.75;1623869;87;21103;-77
2022/09/05 13:30:14;;;;;;;2.62;2.42;;;;;;;25.15;43.53;101462.28;1624296;86;21087;-75
2022/09/05 13:33:17;;;;;;;4.47;2.67;;;;;;;25.17;43.59;101458.14;1623939;88;21087;-85
2022/09/05 13:36:04;;;;;;;6.53;2.65;;;;;;;25.09;43.84;101452.02;1622978;87;21090;-82
2022/09/05 13:39:03;;;;;;;6.53;2.90;;;;;;;25.05;43.72;101451.05;1623695;87;21212;-80
2022/09/05 13:41:58;;;;;;;4.20;2.50;;;;;;;25.13;43.77;101448.09;1624094;88;21072;-76
2022/09/05 13:44:45;;;;;;;5.10;2.80;;;;;;;25.20;43.48;101448.99;1624077;87;21091;-82
2022/09/05 13:47:41;;;;;;;3.40;2.62;;;;;;;25.32;43.81;101443.45;1624602;87;21089;-78
2022/09/05 13:50:42;;;;;;;3.22;2.70;;;;;;;25.54;43.70;101451.06;1662557;84;21067;-82
2022/09/05 13:53:50;;;;;;;3.33;2.47;;;;;;;25.55;43.05;101448.26;1663556;86;39061;-84
2022/09/05 13:56:30;;;;;;;3.50;2.55;;;;;;;25.30;42.72;101443.20;1663659;86;21439;-84
2022/09/05 13:59:19;;;;;;;4.58;2.80;;;;;;;25.01;42.87;101445.59;1663736;86;21533;-84
2022/09/05 14:02:30;;;;;;;5.22;2.72;;;;;;;25.07;42.84;101441.90;1663840;86;21111;-79
2022/09/05 14:05:29;;;;;;;3.15;2.72;;;;;;;25.28;42.94;101443.35;1662852;86;21160;-82
2022/09/05 14:08:44;;;;;;;;;;;;;;;25.13;42.76;101441.39;1665734;85;21106;-83
2022/09/05 14:11:54;;;;;;;4.25;2.87;;;;;;;24.84;42.59;101441.09;1663374;86;20187;-84
2022/09/05 14:14:45;;;;;;;3.12;2.83;;;;;;;24.52;42.74;101436.97;1662753;86;21078;-86
2022/09/05 14:18:16;;;;;;;5.45;2.80;;;;;;;24.29;43.20;101440.10;1663478;86;21107;-83
2022/09/05 14:21:18;;;;;;;3.35;2.40;;;;;;;24.25;43.48;101429.28;1663973;84;20959;-82
2022/09/05 14:24:24;;;;;;;3.52;2.62;;;;;;;24.35;43.88;101421.35;1663458;84;21575;-77
2022/09/05 14:27:17;;;;;;;4.87;2.72;;;;;;;24.17;43.73;101422.33;1663799;86;21091;-78